Time;durP1;ratioP1;P1;durP2;ratioP2;P2;SDS_P1;SDS_P2;PMS_P1;PMS_P2;Temp;Humidity;BMP_temperature;BMP_pressure;BME280_temperature;BME280_humidity;BME280_pressure;Samples;Min_cycle;Max_cycle;Signal;HPM_P1;HPM_P2
2023/01/15 02:15:02;;;;;;;0.00;0.00;;;10.20;92.30;;;;;;5010158;28;20060;-77
2023/01/15 02:17:35;;;;;;;0.10;0.10;;;10.20;92.30;;;;;;4976972;28;20044;-76
2023/01/15 02:20:17;;;;;;;0.20;0.20;;;10.20;92.30;;;;;;5014876;28;20515;-76
2023/01/15 02:23:01;;;;;;;0.43;0.05;;;10.20;92.40;;;;;;5017967;28;20033;-76
2023/01/15 02:25:48;;;;;;;0.10;0.10;;;10.20;92.30;;;;;;5021009;28;20044;-79
2023/01/15 02:28:18;;;;;;;0.35;0.10;;;10.20;92.30;;;;;;5031890;28;20060;-78
2023/01/15 02:30:46;;;;;;;3.00;0.22;;;10.20;92.40;;;;;;5023821;28;20512;-78
2023/01/15 02:33:17;;;;;;;0.00;0.00;;;10.20;92.40;;;;;;5030181;28;20033;-78
2023/01/15 02:35:56;;;;;;;0.08;0.08;;;10.20;92.40;;;;;;5010296;28;20036;-77
2023/01/15 02:38:22;;;;;;;0.10;0.10;;;10.20;92.50;;;;;;5030227;28;20037;-79
2023/01/15 02:40:48;;;;;;;0.10;0.10;;;10.20;92.40;;;;;;5032593;28;20526;-79
2023/01/15 02:43:14;;;;;;;0.10;0.10;;;10.20;92.40;;;;;;5002858;28;20040;-78
2023/01/15 02:45:40;;;;;;;0.10;0.10;;;10.20;92.50;;;;;;5022316;28;20514;-78
2023/01/15 02:48:13;;;;;;;0.30;0.10;;;10.30;92.50;;;;;;5016516;28;20522;-78
2023/01/15 02:50:41;;;;;;;0.82;0.10;;;10.30;92.50;;;;;;5016220;28;20061;-78
2023/01/15 02:53:08;;;;;;;0.25;0.10;;;10.30;92.50;;;;;;5011266;28;20461;-79
2023/01/15 02:55:40;;;;;;;0.00;0.00;;;10.30;92.50;;;;;;5025175;28;20044;-78
2023/01/15 02:58:09;;;;;;;0.00;0.00;;;10.30;92.60;;;;;;5031891;28;20033;-78
2023/01/15 03:00:36;;;;;;;0.52;0.17;;;10.30;92.60;;;;;;5018183;28;20038;-79
2023/01/15 03:03:11;;;;;;;0.10;0.10;;;10.30;92.60;;;;;;5032508;28;20108;-78
2023/01/15 03:05:47;;;;;;;0.10;0.00;;;10.30;92.60;;;;;;5015355;28;20124;-78
2023/01/15 03:08:13;;;;;;;2.63;0.13;;;10.30;92.60;;;;;;5014678;28;20033;-78
2023/01/15 03:10:45;;;;;;;0.00;0.00;;;10.30;92.50;;;;;;5034533;28;20040;-78
2023/01/15 03:13:16;;;;;;;0.10;0.03;;;10.30;92.60;;;;;;5031929;28;20068;-76
2023/01/15 03:18:55;;;;;;;0.10;0.10;;;10.30;92.60;;;;;;5035640;28;20073;-78
2023/01/15 03:21:25;;;;;;;0.00;0.00;;;10.30;92.70;;;;;;5037768;28;20040;-77
2023/01/15 03:23:51;;;;;;;0.08;0.08;;;10.30;92.60;;;;;;5036620;28;20033;-75
2023/01/15 03:26:17;;;;;;;0.00;0.00;;;10.30;92.60;;;;;;5035443;28;20037;-78
2023/01/15 03:28:42;;;;;;;0.10;0.10;;;10.30;92.60;;;;;;5023042;28;20538;-77
2023/01/15 03:31:08;;;;;;;0.00;0.00;;;10.30;92.60;;;;;;5032106;28;20523;-78
2023/01/15 03:33:33;;;;;;;0.43;0.00;;;10.30;92.60;;;;;;5029606;28;20063;-78
2023/01/15 03:35:59;;;;;;;0.05;0.05;;;10.30;92.70;;;;;;5033541;28;20069;-79
2023/01/15 03:38:29;;;;;;;0.10;0.00;;;10.30;92.70;;;;;;5034062;28;20045;-79
2023/01/15 03:41:16;;;;;;;0.47;0.10;;;10.30;92.70;;;;;;5034493;28;20040;-79
2023/01/15 03:43:56;;;;;;;0.20;0.10;;;10.30;92.70;;;;;;5031880;28;20033;-77
2023/01/15 03:46:58;;;;;;;0.95;0.10;;;10.30;92.70;;;;;;5030107;28;20037;-79
2023/01/15 03:50:11;;;;;;;1.13;0.10;;;10.30;92.70;;;;;;5032151;28;20118;-77
2023/01/15 03:52:43;;;;;;;0.00;0.00;;;10.30;92.70;;;;;;4938951;28;20094;-78
2023/01/15 03:55:12;;;;;;;0.00;0.00;;;10.30;92.60;;;;;;4936905;28;20229;-78
2023/01/15 03:57:47;;;;;;;3.13;0.20;;;10.30;92.60;;;;;;4999118;28;20035;-77
2023/01/15 04:00:17;;;;;;;0.00;0.00;;;10.30;92.60;;;;;;5016069;28;20037;-78
2023/01/15 04:02:43;;;;;;;0.67;0.10;;;10.30;92.60;;;;;;5033189;28;20037;-78
2023/01/15 04:05:09;;;;;;;0.28;0.00;;;10.20;92.50;;;;;;5013752;28;20282;-78
2023/01/15 04:07:34;;;;;;;0.00;0.00;;;10.20;92.40;;;;;;5034548;28;20033;-78
2023/01/15 04:10:00;;;;;;;0.00;0.00;;;10.10;92.30;;;;;;5030708;28;20029;-75
2023/01/15 04:12:26;;;;;;;0.10;0.10;;;10.10;92.30;;;;;;5027838;28;20037;-77
2023/01/15 04:14:52;;;;;;;0.15;0.10;;;10.00;92.20;;;;;;5033231;28;20760;-78
2023/01/15 04:17:18;;;;;;;0.00;0.00;;;9.90;92.20;;;;;;5035932;28;20037;-78
2023/01/15 04:19:43;;;;;;;0.10;0.00;;;9.90;92.20;;;;;;5031890;28;20039;-77
2023/01/15 04:22:10;;;;;;;0.00;0.00;;;9.80;92.10;;;;;;5019741;28;20083;-76
2023/01/15 04:24:35;;;;;;;0.30;0.10;;;9.80;92.10;;;;;;5038826;28;20033;-78
2023/01/15 04:27:01;;;;;;;0.00;0.00;;;9.80;92.10;;;;;;5000865;28;20444;-76
2023/01/15 04:29:26;;;;;;;0.10;0.00;;;9.70;92.00;;;;;;5020326;28;20118;-77
2023/01/15 04:31:56;;;;;;;0.52;0.00;;;9.70;92.00;;;;;;5030410;28;20061;-78
2023/01/15 04:34:23;;;;;;;0.00;0.00;;;9.60;92.00;;;;;;5034200;28;20044;-76
2023/01/15 04:36:48;;;;;;;0.00;0.00;;;9.60;91.90;;;;;;5039384;28;20672;-77
2023/01/15 04:39:14;;;;;;;0.00;0.00;;;9.50;91.90;;;;;;5034189;28;20038;-77
2023/01/15 04:44:26;;;;;;;0.47;0.10;;;9.40;91.80;;;;;;5031872;28;20100;-77
2023/01/15 04:46:52;;;;;;;0.13;0.00;;;9.40;91.80;;;;;;5032745;28;20113;-76
2023/01/15 04:49:18;;;;;;;0.00;0.00;;;9.40;91.90;;;;;;5019567;28;20037;-77
2023/01/15 04:51:43;;;;;;;1.15;0.00;;;9.30;91.80;;;;;;5034019;28;20607;-77
2023/01/15 04:54:10;;;;;;;0.20;0.00;;;9.30;91.70;;;;;;5022399;28;20500;-78
2023/01/15 04:56:37;;;;;;;0.00;0.00;;;9.20;91.70;;;;;;5036378;28;20064;-77
2023/01/15 04:59:03;;;;;;;0.45;0.03;;;9.20;91.70;;;;;;5018110;28;20074;-78
2023/01/15 05:01:28;;;;;;;0.00;0.00;;;9.20;91.70;;;;;;5018971;28;20442;-78
2023/01/15 05:03:54;;;;;;;0.00;0.00;;;9.10;91.70;;;;;;5036559;28;20025;-77
2023/01/15 05:06:19;;;;;;;1.00;0.00;;;9.10;91.60;;;;;;5001737;28;20044;-77
2023/01/15 05:08:45;;;;;;;0.00;0.00;;;9.00;91.60;;;;;;5023352;28;20037;-77
2023/01/15 05:11:11;;;;;;;0.00;0.00;;;9.00;91.60;;;;;;5001829;28;20037;-76
2023/01/15 05:13:36;;;;;;;2.13;0.10;;;8.90;91.60;;;;;;5032042;28;20563;-78
2023/01/15 05:16:13;;;;;;;0.00;0.00;;;8.90;91.60;;;;;;5006864;28;20519;-77
2023/01/15 05:18:38;;;;;;;0.00;0.00;;;8.80;91.50;;;;;;5035542;28;20124;-76
2023/01/15 05:21:04;;;;;;;0.00;0.00;;;8.70;91.50;;;;;;5034294;28;20223;-76
2023/01/15 05:23:30;;;;;;;0.47;0.00;;;8.70;91.50;;;;;;5033330;28;20040;-75
2023/01/15 05:25:55;;;;;;;1.10;0.00;;;8.60;91.50;;;;;;5019761;28;20079;-76
2023/01/15 05:28:21;;;;;;;0.00;0.00;;;8.60;91.50;;;;;;5032637;28;20542;-77
2023/01/15 05:30:46;;;;;;;0.00;0.00;;;8.60;91.50;;;;;;5034324;28;20661;-77
2023/01/15 05:33:12;;;;;;;0.52;0.10;;;8.50;91.40;;;;;;5019633;28;20618;-77
2023/01/15 05:35:37;;;;;;;0.15;0.10;;;8.40;91.40;;;;;;5003657;28;20033;-75
2023/01/15 05:38:05;;;;;;;0.00;0.00;;;8.40;91.30;;;;;;5035419;28;20037;-76
2023/01/15 05:40:30;;;;;;;0.40;0.38;;;8.30;91.40;;;;;;5033412;28;20619;-76
2023/01/15 05:42:56;;;;;;;0.00;0.00;;;8.30;91.40;;;;;;5023470;28;20036;-77
2023/01/15 05:45:21;;;;;;;1.85;0.10;;;8.30;91.40;;;;;;5032815;28;20185;-76
2023/01/15 05:47:47;;;;;;;0.95;0.03;;;8.30;91.50;;;;;;5026616;28;20764;-77
2023/01/15 05:50:12;;;;;;;0.30;0.10;;;8.20;91.40;;;;;;5032895;28;20582;-77
2023/01/15 05:52:38;;;;;;;0.00;0.00;;;8.20;91.40;;;;;;5026322;28;20859;-76
2023/01/15 05:55:04;;;;;;;0.10;0.03;;;8.20;91.40;;;;;;5013487;28;20037;-77
2023/01/15 05:57:31;;;;;;;0.47;0.10;;;8.20;91.40;;;;;;5022617;28;20033;-75
2023/01/15 05:59:57;;;;;;;0.00;0.00;;;8.10;91.40;;;;;;5019275;28;20029;-76
2023/01/15 06:02:22;;;;;;;0.10;0.10;;;8.10;91.40;;;;;;5029560;28;20043;-76
2023/01/15 06:04:48;;;;;;;0.40;0.20;;;8.10;91.40;;;;;;5017958;28;20036;-76
2023/01/15 06:07:16;;;;;;;0.22;0.10;;;8.10;91.50;;;;;;5012813;28;20048;-77
2023/01/15 06:09:41;;;;;;;0.45;0.10;;;8.10;91.50;;;;;;5037432;28;20043;-76
2023/01/15 06:12:07;;;;;;;0.90;0.10;;;8.00;91.40;;;;;;5040176;28;20033;-76
2023/01/15 06:14:32;;;;;;;1.05;0.05;;;8.00;91.40;;;;;;5035504;28;20077;-75
2023/01/15 06:16:58;;;;;;;0.70;0.10;;;8.00;91.40;;;;;;5035914;28;20060;-76
2023/01/15 06:19:23;;;;;;;0.73;0.10;;;8.00;91.50;;;;;;5031392;28;20033;-76
2023/01/15 06:21:49;;;;;;;0.38;0.10;;;8.00;91.40;;;;;;5033148;28;20032;-76
2023/01/15 06:24:16;;;;;;;0.52;0.15;;;7.90;91.50;;;;;;5020172;28;20028;-76
2023/01/15 06:26:42;;;;;;;0.05;0.05;;;7.90;91.50;;;;;;5032443;28;20039;-74
2023/01/15 06:29:07;;;;;;;2.72;0.20;;;7.90;91.50;;;;;;5034475;28;20033;-76
2023/01/15 06:31:33;;;;;;;1.88;0.10;;;7.90;91.50;;;;;;5035817;28;20747;-76
2023/01/15 06:33:58;;;;;;;0.65;0.20;;;7.90;91.50;;;;;;5018286;28;20411;-77
2023/01/15 06:36:25;;;;;;;0.15;0.10;;;7.90;91.50;;;;;;5032867;28;20897;-76
2023/01/15 06:38:50;;;;;;;0.10;0.10;;;7.80;91.50;;;;;;5035275;28;20037;-76
2023/01/15 06:49:31;;;;;;;0.38;0.20;;;7.70;91.40;;;;;;5041098;28;20060;-79
2023/01/15 06:51:57;;;;;;;1.42;0.70;;;7.70;91.40;;;;;;5025250;28;20124;-75
2023/01/15 06:54:22;;;;;;;0.55;0.30;;;7.60;91.40;;;;;;5017135;28;20573;-76
2023/01/15 06:56:48;;;;;;;2.33;0.52;;;7.60;91.40;;;;;;5049537;28;20045;-79
2023/01/15 06:59:13;;;;;;;1.73;1.02;;;7.60;91.50;;;;;;5019843;28;20048;-77
2023/01/15 07:01:39;;;;;;;1.83;0.80;;;7.60;91.50;;;;;;5030346;28;20044;-76
2023/01/15 07:04:04;;;;;;;1.75;1.00;;;7.50;91.30;;;;;;5014358;28;20049;-73
2023/01/15 07:06:30;;;;;;;0.60;0.40;;;7.50;91.30;;;;;;5029462;28;20033;-77
2023/01/15 07:08:56;;;;;;;2.83;0.65;;;7.40;91.30;;;;;;5048963;28;20036;-77
2023/01/15 07:11:21;;;;;;;1.13;0.47;;;7.40;91.20;;;;;;5033356;28;20133;-77
2023/01/15 07:13:48;;;;;;;0.70;0.60;;;7.30;91.20;;;;;;5032282;28;20511;-76
2023/01/15 07:16:28;;;;;;;1.80;0.47;;;7.30;91.30;;;;;;5034920;28;20774;-77
2023/01/15 07:18:54;;;;;;;3.63;0.70;;;7.30;91.20;;;;;;5029474;28;20508;-76
2023/01/15 07:21:20;;;;;;;1.60;0.50;;;7.30;91.30;;;;;;5017884;28;20036;-77
2023/01/15 07:23:45;;;;;;;2.88;1.20;;;7.20;91.30;;;;;;5018024;28;20033;-77
2023/01/15 07:26:11;;;;;;;0.70;0.60;;;7.20;91.30;;;;;;5032857;28;20110;-76
2023/01/15 07:28:36;;;;;;;1.23;0.85;;;7.20;91.30;;;;;;5034496;28;20098;-77
2023/01/15 07:31:02;;;;;;;0.88;0.40;;;7.10;91.20;;;;;;5030711;28;20120;-77
2023/01/15 07:33:27;;;;;;;1.10;0.70;;;7.10;91.20;;;;;;5021424;28;20135;-77
2023/01/15 07:35:53;;;;;;;0.82;0.73;;;7.10;91.20;;;;;;5020955;28;20982;-77
2023/01/15 07:38:18;;;;;;;0.65;0.60;;;7.10;91.20;;;;;;5029773;28;20041;-77
2023/01/15 07:49:43;;;;;;;1.38;0.90;;;7.00;91.20;;;;;;5029383;28;20041;-76
2023/01/15 07:51:42;;;;;;;0.20;0.20;;;6.90;91.20;;;;;;5033808;28;20040;-74
2023/01/15 07:54:08;;;;;;;0.20;0.20;;;6.90;91.20;;;;;;5034334;28;20060;-77
2023/01/15 07:56:33;;;;;;;0.75;0.10;;;6.80;91.20;;;;;;5014267;28;20029;-77
2023/01/15 07:58:59;;;;;;;0.30;0.30;;;6.80;91.20;;;;;;5030702;28;20056;-78
2023/01/15 08:01:24;;;;;;;0.60;0.50;;;6.80;91.20;;;;;;5016440;28;20501;-77
2023/01/15 08:03:50;;;;;;;0.35;0.30;;;6.70;91.20;;;;;;5030845;28;20044;-79
2023/01/15 08:06:15;;;;;;;0.30;0.20;;;6.70;91.20;;;;;;5031038;28;20037;-76
2023/01/15 08:08:41;;;;;;;0.20;0.15;;;6.70;91.20;;;;;;5035045;28;21527;-75
2023/01/15 08:16:35;;;;;;;0.25;0.25;;;6.60;91.20;;;;;;5029021;28;20079;-75
2023/01/15 08:19:01;;;;;;;0.17;0.10;;;6.60;91.30;;;;;;5013927;28;20110;-76
2023/01/15 08:21:27;;;;;;;0.10;0.10;;;6.60;91.30;;;;;;5023770;28;20037;-77
2023/01/15 08:23:53;;;;;;;1.17;0.20;;;6.60;91.30;;;;;;5004663;28;20033;-76
2023/01/15 08:26:18;;;;;;;1.42;0.43;;;6.60;91.30;;;;;;4993133;28;20774;-79
2023/01/15 08:28:44;;;;;;;1.48;1.30;;;6.60;91.30;;;;;;5037690;28;20085;-79
2023/01/15 08:31:12;;;;;;;0.52;0.52;;;6.60;91.30;;;;;;5034496;28;20459;-77
2023/01/15 08:33:38;;;;;;;0.32;0.28;;;6.50;91.30;;;;;;5032321;28;20151;-78
2023/01/15 08:36:04;;;;;;;1.17;0.45;;;6.50;91.30;;;;;;5021693;28;20047;-79
2023/01/15 08:38:29;;;;;;;0.55;0.47;;;6.50;91.30;;;;;;5031846;28;20045;-76
2023/01/15 08:40:58;;;;;;;1.17;0.68;;;6.50;91.30;;;;;;5025909;28;20052;-78
2023/01/15 08:43:25;;;;;;;0.98;0.50;;;6.50;91.30;;;;;;5029589;28;20112;-77
2023/01/15 08:45:51;;;;;;;3.30;0.88;;;6.40;91.30;;;;;;5019965;28;20032;-78
2023/01/15 08:48:17;;;;;;;5.10;2.38;;;6.40;91.20;;;;;;5033550;28;20051;-78
2023/01/15 08:50:42;;;;;;;2.30;1.13;;;6.40;91.20;;;;;;5033256;28;20033;-76
2023/01/15 08:53:08;;;;;;;1.25;0.63;;;6.40;91.20;;;;;;5028357;28;20443;-76
2023/01/15 08:55:33;;;;;;;0.52;0.32;;;6.30;91.20;;;;;;5019442;28;20070;-78
2023/01/15 08:57:59;;;;;;;1.90;1.30;;;6.30;91.20;;;;;;5020095;28;20029;-78
2023/01/15 09:00:24;;;;;;;2.33;1.85;;;6.30;91.20;;;;;;5025701;28;20407;-77
2023/01/15 09:02:50;;;;;;;1.15;0.70;;;6.30;91.20;;;;;;5029532;28;20705;-78
2023/01/15 09:05:16;;;;;;;0.82;0.40;;;6.30;91.20;;;;;;5027739;28;20392;-77
2023/01/15 09:07:41;;;;;;;0.20;0.20;;;6.20;91.20;;;;;;5037553;28;20025;-77
2023/01/15 09:10:07;;;;;;;3.00;1.00;;;6.20;91.20;;;;;;5032236;28;20551;-78
2023/01/15 09:12:33;;;;;;;0.93;0.70;;;6.20;91.20;;;;;;5035375;28;20136;-78
2023/01/15 09:15:00;;;;;;;2.67;1.15;;;6.20;91.20;;;;;;5007145;28;20523;-77
2023/01/15 09:17:26;;;;;;;0.73;0.50;;;6.20;91.20;;;;;;5035665;28;20079;-75
2023/01/15 09:19:51;;;;;;;4.22;1.33;;;6.10;91.20;;;;;;5032842;28;20053;-79
2023/01/15 09:22:17;;;;;;;2.58;1.63;;;6.10;91.20;;;;;;5017688;28;20025;-77
2023/01/15 09:24:42;;;;;;;0.40;0.40;;;6.10;91.30;;;;;;5035000;28;20037;-78
2023/01/15 09:33:52;;;;;;;0.17;0.17;;;6.10;91.20;;;;;;5027693;28;20100;-78
2023/01/15 09:36:19;;;;;;;0.20;0.20;;;6.00;91.30;;;;;;5004819;28;20132;-77
2023/01/15 09:38:44;;;;;;;0.28;0.22;;;6.00;91.30;;;;;;5020221;28;20032;-78
2023/01/15 09:44:06;;;;;;;0.10;0.10;;;5.90;91.20;;;;;;5021156;28;20435;-76
2023/01/15 09:46:44;;;;;;;0.13;0.13;;;5.90;91.20;;;;;;5020399;28;21619;-78
2023/01/15 09:49:15;;;;;;;0.10;0.10;;;5.90;91.20;;;;;;5032893;28;20037;-78
2023/01/15 09:51:58;;;;;;;2.72;0.10;;;5.80;91.20;;;;;;5037032;28;21036;-78
2023/01/15 09:54:29;;;;;;;0.10;0.10;;;5.80;91.20;;;;;;5023004;28;20051;-78
2023/01/15 09:56:55;;;;;;;;;;;5.80;91.60;;;;;;5033787;28;20801;-77
2023/01/15 09:59:30;;;;;;;0.15;0.10;;;5.80;91.30;;;;;;5017783;28;19927;-78
2023/01/15 10:01:56;;;;;;;0.20;0.20;;;5.80;91.30;;;;;;5039764;28;20032;-78
2023/01/15 10:04:30;;;;;;;0.13;0.10;;;5.70;91.30;;;;;;5018881;28;20122;-77
2023/01/15 10:07:02;;;;;;;2.90;0.10;;;5.80;91.30;;;;;;5037671;28;20036;-78
2023/01/15 10:09:34;;;;;;;0.52;0.28;;;5.70;91.30;;;;;;5028759;28;20034;-77
2023/01/15 10:15:13;;;;;;;1.17;0.30;;;5.70;91.40;;;;;;5034966;28;20071;-78
2023/01/15 10:17:52;;;;;;;0.10;0.10;;;5.80;91.40;;;;;;5034256;28;20052;-78
2023/01/15 10:20:30;;;;;;;0.20;0.20;;;5.80;91.40;;;;;;5017772;28;20112;-78
2023/01/15 10:23:09;;;;;;;0.60;0.50;;;5.70;91.40;;;;;;5038847;28;20145;-79
2023/01/15 10:25:46;;;;;;;0.30;0.20;;;5.70;91.40;;;;;;5019493;28;20161;-77
2023/01/15 10:28:19;;;;;;;1.35;0.77;;;5.80;91.50;;;;;;5032110;28;20033;-77
2023/01/15 10:30:55;;;;;;;0.75;0.50;;;5.70;91.40;;;;;;5029063;28;20040;-77
2023/01/15 10:33:57;;;;;;;3.38;1.55;;;5.70;91.40;;;;;;5026752;28;20421;-78
2023/01/15 10:36:34;;;;;;;7.35;3.70;;;5.70;91.40;;;;;;4961285;28;20037;-78
2023/01/15 10:39:12;;;;;;;5.45;2.97;;;5.70;91.40;;;;;;5032920;28;20036;-76
2023/01/15 10:41:49;;;;;;;1.02;0.60;;;5.70;91.40;;;;;;5035085;28;20623;-77
2023/01/15 10:44:42;;;;;;;0.20;0.10;;;5.70;91.40;;;;;;5025987;28;20605;-78
2023/01/15 10:47:11;;;;;;;0.73;0.52;;;5.60;91.40;;;;;;5015938;28;20144;-77
2023/01/15 10:49:37;;;;;;;0.38;0.20;;;5.70;91.80;;;;;;5014642;28;20036;-77
2023/01/15 10:52:11;;;;;;;0.45;0.30;;;5.70;91.50;;;;;;5002557;28;20033;-78
2023/01/15 10:54:41;;;;;;;1.02;0.35;;;5.60;91.40;;;;;;5031778;28;20045;-77
2023/01/15 10:57:14;;;;;;;0.28;0.10;;;5.60;91.40;;;;;;5019075;28;20518;-77
2023/01/15 10:59:51;;;;;;;0.20;0.20;;;5.60;91.40;;;;;;5012746;28;20052;-77
2023/01/15 11:02:35;;;;;;;0.10;0.10;;;5.60;91.40;;;;;;5022624;28;20490;-75
2023/01/15 11:05:02;;;;;;;0.13;0.13;;;5.60;91.40;;;;;;5010100;28;20711;-76
2023/01/15 11:07:47;;;;;;;0.32;0.20;;;5.60;91.40;;;;;;5019898;28;20032;-78
2023/01/15 11:10:16;;;;;;;0.30;0.25;;;5.70;91.50;;;;;;5032684;28;20110;-77
2023/01/15 11:21:16;;;;;;;10.23;4.60;;;5.80;91.60;;;;;;5022855;28;20048;-77
2023/01/15 11:23:41;;;;;;;1.38;1.00;;;5.80;91.60;;;;;;5012875;28;20025;-76
2023/01/15 11:26:07;;;;;;;2.45;1.67;;;5.90;91.60;;;;;;5015235;28;20727;-78
2023/01/15 11:28:35;;;;;;;2.15;1.50;;;5.80;91.60;;;;;;5028552;28;20048;-77
2023/01/15 11:31:01;;;;;;;4.72;1.55;;;5.90;91.60;;;;;;5016585;28;20041;-77
2023/01/15 11:33:27;;;;;;;1.08;1.00;;;5.90;91.60;;;;;;5016747;28;20037;-75
2023/01/15 11:35:57;;;;;;;1.02;0.80;;;5.90;91.60;;;;;;5016857;28;20064;-77
2023/01/15 11:38:24;;;;;;;1.30;0.82;;;5.90;91.60;;;;;;5030908;28;20033;-71
2023/01/15 11:40:54;;;;;;;1.80;1.30;;;5.90;91.60;;;;;;5022249;28;20040;-76
2023/01/15 11:52:02;;;;;;;0.32;0.30;;;6.00;91.50;;;;;;5029448;28;20039;-76
2023/01/15 11:54:28;;;;;;;0.77;0.50;;;6.00;91.60;;;;;;5031615;28;20542;-76
2023/01/15 11:56:53;;;;;;;0.30;0.30;;;6.00;91.50;;;;;;5037515;28;20037;-76
2023/01/15 11:59:19;;;;;;;0.57;0.52;;;6.10;91.50;;;;;;5033272;28;20060;-76
2023/01/15 12:01:58;;;;;;;0.40;0.40;;;6.10;91.50;;;;;;5035834;28;20055;-76
2023/01/15 12:04:29;;;;;;;0.63;0.30;;;6.10;91.50;;;;;;5030249;28;20408;-75
2023/01/15 12:06:55;;;;;;;1.10;0.38;;;6.00;91.40;;;;;;5037639;28;20048;-77
2023/01/15 12:09:24;;;;;;;1.20;0.30;;;6.10;91.40;;;;;;5005148;28;20388;-76
2023/01/15 12:12:22;;;;;;;0.28;0.20;;;6.10;91.40;;;;;;5030581;28;20044;-74
2023/01/15 12:15:14;;;;;;;0.80;0.30;;;6.10;91.40;;;;;;5023576;28;20052;-76
2023/01/15 12:17:51;;;;;;;0.55;0.20;;;6.10;91.40;;;;;;5024547;28;20411;-76
2023/01/15 12:20:27;;;;;;;0.50;0.28;;;6.10;91.30;;;;;;5012691;28;20087;-76
2023/01/15 12:23:05;;;;;;;1.23;0.20;;;6.10;91.30;;;;;;5034880;28;20044;-76
2023/01/15 12:25:48;;;;;;;1.05;0.30;;;6.10;91.20;;;;;;5031178;28;20087;-75
2023/01/15 12:28:26;;;;;;;0.10;0.10;;;6.10;91.60;;;;;;5015284;28;20083;-76
2023/01/15 12:31:07;;;;;;;0.10;0.10;;;6.00;91.20;;;;;;5029794;28;20033;-76
2023/01/15 12:33:48;;;;;;;0.40;0.20;;;6.10;91.20;;;;;;5028495;28;20036;-76
2023/01/15 12:36:35;;;;;;;1.47;0.30;;;6.10;91.20;;;;;;5031164;28;20655;-76
2023/01/15 12:39:16;;;;;;;1.65;0.20;;;6.10;91.20;;;;;;5033270;28;20049;-76
2023/01/15 12:47:44;;;;;;;1.48;0.30;;;6.10;91.20;;;;;;5032946;28;20045;-76
2023/01/15 12:50:43;;;;;;;1.45;0.43;;;6.10;91.10;;;;;;5021040;28;20534;-77
2023/01/15 12:53:13;;;;;;;0.40;0.20;;;6.10;91.10;;;;;;5039613;28;20045;-76
2023/01/15 12:55:44;;;;;;;0.55;0.25;;;6.10;91.10;;;;;;5050031;28;20649;-77
2023/01/15 12:58:33;;;;;;;0.90;0.30;;;6.10;91.10;;;;;;5020861;28;20048;-75
2023/01/15 13:01:25;;;;;;;1.25;0.30;;;6.10;91.00;;;;;;5049078;28;20167;-76
2023/01/15 13:03:50;;;;;;;;;;;6.10;91.10;;;;;;5001829;28;20634;-77
2023/01/15 13:06:16;;;;;;;0.73;0.32;;;6.10;91.10;;;;;;5033205;28;19947;-75
2023/01/15 13:08:49;;;;;;;1.33;0.40;;;6.10;91.10;;;;;;5034377;28;20043;-75
2023/01/15 13:11:15;;;;;;;1.05;0.20;;;6.10;91.10;;;;;;5026675;28;20025;-77
2023/01/15 13:13:40;;;;;;;1.48;0.55;;;6.10;91.10;;;;;;5024978;28;20694;-77
2023/01/15 13:16:15;;;;;;;0.65;0.30;;;6.20;91.20;;;;;;5033245;28;20053;-77
2023/01/15 13:18:40;;;;;;;0.45;0.25;;;6.30;91.10;;;;;;5038844;28;21113;-76
2023/01/15 13:21:12;;;;;;;1.35;0.20;;;6.40;91.10;;;;;;5032757;28;20048;-76
2023/01/15 13:24:01;;;;;;;1.50;0.30;;;6.50;91.20;;;;;;5035544;28;20705;-77
2023/01/15 13:26:33;;;;;;;0.63;0.30;;;6.60;91.30;;;;;;5017026;28;20124;-77
2023/01/15 13:29:24;;;;;;;1.90;0.47;;;6.70;91.30;;;;;;5026668;28;20037;-77
2023/01/15 13:32:02;;;;;;;2.15;0.38;;;6.90;91.40;;;;;;5023990;28;20053;-77
2023/01/15 13:34:42;;;;;;;3.70;0.40;;;7.10;91.40;;;;;;5028937;28;20041;-76
2023/01/15 13:37:23;;;;;;;6.22;0.73;;;7.30;91.30;;;;;;5038434;28;20107;-76
2023/01/15 13:39:49;;;;;;;1.70;1.38;;;7.50;91.30;;;;;;5045769;28;20499;-76
2023/01/15 13:42:31;;;;;;;1.23;0.57;;;7.60;91.20;;;;;;5021465;28;20763;-74
2023/01/15 13:45:05;;;;;;;3.90;0.95;;;7.80;91.20;;;;;;5031562;28;20168;-77
2023/01/15 13:47:32;;;;;;;1.25;0.90;;;7.90;91.10;;;;;;5022342;28;20037;-76
2023/01/15 13:50:06;;;;;;;1.40;0.63;;;8.00;90.90;;;;;;5015332;28;20874;-76
2023/01/15 13:52:35;;;;;;;1.27;0.60;;;8.10;90.70;;;;;;5031508;28;20049;-76
2023/01/15 13:55:15;;;;;;;3.40;1.05;;;8.10;90.50;;;;;;5033234;28;20115;-75
2023/01/15 13:57:41;;;;;;;2.22;1.10;;;8.00;90.20;;;;;;5014287;28;20459;-76
2023/01/15 14:00:35;;;;;;;2.88;0.60;;;7.90;90.10;;;;;;5019124;28;20129;-76
2023/01/15 14:03:02;;;;;;;0.73;0.50;;;7.80;89.70;;;;;;5035387;28;20120;-75
2023/01/15 14:05:30;;;;;;;1.95;0.60;;;7.70;89.90;;;;;;5015024;28;20562;-76
2023/01/15 14:07:55;;;;;;;2.97;0.50;;;7.70;89.70;;;;;;5023440;28;20041;-77
2023/01/15 14:10:32;;;;;;;3.28;0.77;;;7.60;89.60;;;;;;5018027;28;20539;-76
2023/01/15 14:13:11;;;;;;;1.98;0.60;;;7.50;89.50;;;;;;5031929;28;20029;-77
2023/01/15 14:16:20;;;;;;;1.65;0.70;;;7.40;89.30;;;;;;5035080;28;20033;-77
2023/01/15 14:19:26;;;;;;;2.30;0.63;;;7.40;89.30;;;;;;5002206;28;20561;-77
2023/01/15 14:21:59;;;;;;;2.35;0.40;;;7.30;89.30;;;;;;4942450;28;20449;-77
2023/01/15 14:24:52;;;;;;;1.60;0.50;;;7.20;89.40;;;;;;4935880;28;20035;-77
2023/01/15 14:27:20;;;;;;;2.20;0.60;;;7.10;89.20;;;;;;5012347;28;20094;-77
2023/01/15 14:30:20;;;;;;;2.72;1.15;;;7.00;89.50;;;;;;5035642;28;20048;-79
2023/01/15 14:33:04;;;;;;;1.17;0.28;;;6.90;89.40;;;;;;5030468;28;20035;-77
2023/01/15 14:35:38;;;;;;;3.00;1.08;;;6.90;89.70;;;;;;5036653;28;20488;-76
2023/01/15 14:38:07;;;;;;;2.50;1.02;;;6.90;89.60;;;;;;5037349;28;20017;-76
2023/01/15 14:40:33;;;;;;;7.18;2.60;;;6.80;89.60;;;;;;5018898;28;20541;-76
2023/01/15 14:43:09;;;;;;;2.17;1.30;;;6.80;89.70;;;;;;5015433;28;20036;-77
2023/01/15 14:45:38;;;;;;;9.10;4.35;;;6.80;89.60;;;;;;5020066;28;20029;-77
2023/01/15 14:48:05;;;;;;;9.82;3.47;;;6.80;89.70;;;;;;5028138;28;20029;-76
2023/01/15 14:50:37;;;;;;;9.48;3.08;;;6.80;89.70;;;;;;5019822;28;20033;-78
2023/01/15 14:53:12;;;;;;;13.18;4.10;;;6.80;89.60;;;;;;5012796;28;20033;-79
2023/01/15 14:55:57;;;;;;;2.30;1.45;;;6.70;89.60;;;;;;5033413;28;20036;-78
2023/01/15 14:58:35;;;;;;;1.75;1.42;;;6.70;89.60;;;;;;5028969;28;20355;-80
2023/01/15 15:01:04;;;;;;;1.75;1.20;;;6.70;89.60;;;;;;5031739;28;20033;-79
2023/01/15 15:03:36;;;;;;;3.58;1.60;;;6.60;89.60;;;;;;5031003;28;20028;-75
2023/01/15 15:06:04;;;;;;;1.30;0.70;;;6.60;89.50;;;;;;5015482;28;20075;-75
2023/01/15 15:08:30;;;;;;;2.10;0.82;;;6.60;89.60;;;;;;5022886;28;20299;-74
2023/01/15 15:10:55;;;;;;;1.58;1.00;;;6.50;89.50;;;;;;5019326;28;20029;-77
2023/01/15 15:13:33;;;;;;;1.60;0.70;;;6.50;89.50;;;;;;5019603;28;20060;-76
2023/01/15 15:16:23;;;;;;;3.03;1.00;;;6.50;89.60;;;;;;5019862;28;20526;-76
2023/01/15 15:18:57;;;;;;;1.30;0.70;;;6.50;89.40;;;;;;5005460;28;20049;-76
2023/01/15 15:21:30;;;;;;;1.90;1.20;;;6.50;89.60;;;;;;5026397;28;20079;-75
2023/01/15 15:24:06;;;;;;;0.88;0.80;;;6.50;89.60;;;;;;5018568;28;20056;-76
2023/01/15 15:26:33;;;;;;;3.30;1.20;;;6.50;89.50;;;;;;5014883;28;20471;-74
2023/01/15 15:29:08;;;;;;;1.48;0.80;;;6.50;89.50;;;;;;5020651;28;21077;-75
2023/01/15 15:31:35;;;;;;;2.03;0.70;;;6.40;89.50;;;;;;5029658;28;20060;-76
2023/01/15 15:34:01;;;;;;;3.30;1.58;;;6.40;89.60;;;;;;5029473;28;20054;-74
2023/01/15 15:36:30;;;;;;;12.65;4.35;;;6.40;89.50;;;;;;5029600;28;20488;-75
2023/01/15 15:39:04;;;;;;;6.35;2.63;;;6.40;89.50;;;;;;5022290;28;20061;-76
2023/01/15 15:50:39;;;;;;;3.63;1.50;;;6.30;89.40;;;;;;5029005;28;20462;-75
2023/01/15 15:53:14;;;;;;;2.75;1.17;;;6.30;89.30;;;;;;5019482;28;20725;-76
2023/01/15 15:55:41;;;;;;;2.08;0.95;;;6.30;89.40;;;;;;5035909;28;20029;-76
2023/01/15 15:58:07;;;;;;;2.92;0.52;;;6.20;89.30;;;;;;5031675;28;20045;-76
2023/01/15 16:00:34;;;;;;;4.22;1.08;;;6.20;89.30;;;;;;5030576;28;20060;-76
2023/01/15 16:03:04;;;;;;;3.15;2.00;;;6.20;89.40;;;;;;5015237;28;20590;-75
2023/01/15 16:05:31;;;;;;;3.40;2.83;;;6.10;89.40;;;;;;5021789;28;20076;-70
2023/01/15 16:08:16;;;;;;;2.75;1.02;;;6.10;89.40;;;;;;5033564;28;20605;-76
2023/01/15 16:10:42;;;;;;;3.53;1.13;;;6.10;89.40;;;;;;5034753;28;20047;-74
2023/01/15 16:13:11;;;;;;;4.03;2.85;;;6.10;89.40;;;;;;5033675;28;20040;-76
2023/01/15 16:15:38;;;;;;;3.10;1.40;;;6.10;89.40;;;;;;5031713;28;20041;-77
2023/01/15 16:18:04;;;;;;;5.30;4.50;;;6.10;89.50;;;;;;5018287;28;20026;-77
2023/01/15 16:20:30;;;;;;;5.50;3.10;;;6.10;89.40;;;;;;5022401;28;20029;-76
2023/01/15 16:22:59;;;;;;;2.67;1.73;;;6.10;89.40;;;;;;5033563;28;20755;-76
2023/01/15 16:25:33;;;;;;;8.55;4.25;;;6.10;89.40;;;;;;5022501;28;20040;-76
2023/01/15 16:27:59;;;;;;;2.85;1.50;;;6.00;89.30;;;;;;5030685;28;20139;-75
2023/01/15 16:30:25;;;;;;;1.65;0.98;;;6.00;89.50;;;;;;5029298;28;20140;-76
2023/01/15 16:32:50;;;;;;;2.55;1.30;;;6.00;89.30;;;;;;5035694;28;20882;-75
2023/01/15 16:35:21;;;;;;;7.60;2.65;;;6.00;89.30;;;;;;5032449;28;21017;-76
2023/01/15 16:37:54;;;;;;;6.47;2.95;;;5.90;89.40;;;;;;5032816;28;20038;-76
2023/01/15 16:40:27;;;;;;;3.05;1.50;;;5.90;89.40;;;;;;5031881;28;20033;-76